Oakton, Virginia
Current Conditions -  °F | °C
As of 12:52 AM on Monday 20 Oct 2014 (Local Time) from KIAD Reporting Station
Broken Clouds Broken Clouds  
Wind Chill: 38°   Ceiling: 25000
Heat Index: 38°   Visibility: 10mi
Dew Point: 35°   Wind: 0mph
Humidity: 89%   Direction: NA
Pressure: 30.11"   Gusts: NA
Location:  38.88°N, 77.3°W
Report Text: KIAD 200452Z 00000KT 10SM FEW180 BKN250 03/02 A3011 RMK AO2 SLP196 T00330017 401440033 $
Loading
Personal Weather Stations






























Interactive Weather Map
Tropical Storm Tracking
New forecast layout! Learn more

10-Day Weather Forecast

Advertisements
Track Severe Weather on mobile